Pembroke Park, Florida
Current Conditions -  °F | °C
As of 3:53 PM on Monday 24 Nov 2014 (Local Time) from KHWO Reporting Station
Clear Clear  
Wind Chill: 85°   Ceiling: Unl
Heat Index: 92°   Visibility: 10mi
Dew Point: 73°   Wind: 13mph
Humidity: 67%   Direction: 160°SSE
Pressure: 29.97"   Gusts: NA
Location:  25.9859°N, 80.1469°W
Report Text: KHWO 242053Z AUTO 16011KT 10SM CLR 29/23 A2997 RMK AO2 SLP147 T02940228 55003
Loading
Personal Weather Stations






























Interactive Weather Map New forecast layout! Learn more

10-Day Weather Forecast

Advertisements
Track Severe Weather on mobile